sensor_id;sensor_type;location;lat;lon;timestamp;P1;durP1;ratioP1;P2;durP2;ratioP2
17790;SDS011;9019;48.132;-1.210;2023-04-25T00:01:00;12.90;;;7.13;;
17790;SDS011;9019;48.132;-1.210;2023-04-25T00:03:28;11.33;;;6.17;;
17790;SDS011;9019;48.132;-1.210;2023-04-25T00:05:55;10.10;;;6.07;;
17790;SDS011;9019;48.132;-1.210;2023-04-25T00:08:23;10.70;;;5.87;;
17790;SDS011;9019;48.132;-1.210;2023-04-25T00:10:51;11.17;;;5.97;;
17790;SDS011;9019;48.132;-1.210;2023-04-25T00:13:18;11.23;;;5.97;;
17790;SDS011;9019;48.132;-1.210;2023-04-25T00:15:46;19.93;;;6.37;;
17790;SDS011;9019;48.132;-1.210;2023-04-25T00:18:14;13.50;;;5.93;;
17790;SDS011;9019;48.132;-1.210;2023-04-25T00:20:42;14.37;;;7.13;;
17790;SDS011;9019;48.132;-1.210;2023-04-25T00:23:11;13.97;;;7.60;;
17790;SDS011;9019;48.132;-1.210;2023-04-25T00:25:42;14.43;;;8.70;;
17790;SDS011;9019;48.132;-1.210;2023-04-25T00:28:11;14.70;;;7.87;;
17790;SDS011;9019;48.132;-1.210;2023-04-25T00:30:38;12.87;;;7.20;;
17790;SDS011;9019;48.132;-1.210;2023-04-25T00:33:05;12.27;;;5.80;;
17790;SDS011;9019;48.132;-1.210;2023-04-25T00:35:32;12.07;;;5.73;;
17790;SDS011;9019;48.132;-1.210;2023-04-25T00:38:00;14.03;;;5.47;;
17790;SDS011;9019;48.132;-1.210;2023-04-25T00:40:27;10.50;;;5.03;;
17790;SDS011;9019;48.132;-1.210;2023-04-25T00:42:54;11.83;;;5.33;;
17790;SDS011;9019;48.132;-1.210;2023-04-25T00:45:23;16.40;;;5.33;;
17790;SDS011;9019;48.132;-1.210;2023-04-25T00:47:54;14.17;;;5.10;;
17790;SDS011;9019;48.132;-1.210;2023-04-25T00:50:21;15.77;;;5.33;;
17790;SDS011;9019;48.132;-1.210;2023-04-25T00:52:48;11.07;;;5.30;;
17790;SDS011;9019;48.132;-1.210;2023-04-25T00:55:16;11.67;;;5.13;;
17790;SDS011;9019;48.132;-1.210;2023-04-25T00:57:43;13.20;;;5.67;;
17790;SDS011;9019;48.132;-1.210;2023-04-25T01:00:10;11.27;;;5.20;;
17790;SDS011;9019;48.132;-1.210;2023-04-25T01:02:40;17.27;;;5.60;;
17790;SDS011;9019;48.132;-1.210;2023-04-25T01:05:07;12.57;;;5.47;;
17790;SDS011;9019;48.132;-1.210;2023-04-25T01:07:35;10.87;;;5.00;;
17790;SDS011;9019;48.132;-1.210;2023-04-25T01:10:02;11.87;;;4.87;;
17790;SDS011;9019;48.132;-1.210;2023-04-25T01:12:30;13.27;;;5.40;;
17790;SDS011;9019;48.132;-1.210;2023-04-25T01:14:57;13.13;;;5.37;;
17790;SDS011;9019;48.132;-1.210;2023-04-25T01:17:24;14.53;;;5.10;;
17790;SDS011;9019;48.132;-1.210;2023-04-25T01:19:53;10.90;;;5.67;;
17790;SDS011;9019;48.132;-1.210;2023-04-25T01:22:22;13.67;;;5.60;;
17790;SDS011;9019;48.132;-1.210;2023-04-25T01:24:49;14.93;;;5.17;;
17790;SDS011;9019;48.132;-1.210;2023-04-25T01:27:16;8.57;;;5.13;;
17790;SDS011;9019;48.132;-1.210;2023-04-25T01:29:45;16.13;;;6.40;;
17790;SDS011;9019;48.132;-1.210;2023-04-25T01:32:13;16.37;;;7.10;;
17790;SDS011;9019;48.132;-1.210;2023-04-25T01:34:40;15.07;;;7.80;;
17790;SDS011;9019;48.132;-1.210;2023-04-25T01:37:07;13.27;;;7.50;;
17790;SDS011;9019;48.132;-1.210;2023-04-25T01:39:36;13.33;;;6.17;;
17790;SDS011;9019;48.132;-1.210;2023-04-25T01:42:03;11.20;;;6.17;;
17790;SDS011;9019;48.132;-1.210;2023-04-25T01:44:30;11.00;;;5.93;;
17790;SDS011;9019;48.132;-1.210;2023-04-25T01:46:58;13.03;;;6.30;;
17790;SDS011;9019;48.132;-1.210;2023-04-25T01:49:25;14.73;;;6.07;;
17790;SDS011;9019;48.132;-1.210;2023-04-25T01:51:52;13.73;;;6.37;;
17790;SDS011;9019;48.132;-1.210;2023-04-25T01:54:19;12.70;;;6.10;;
17790;SDS011;9019;48.132;-1.210;2023-04-25T01:56:51;11.87;;;6.30;;
17790;SDS011;9019;48.132;-1.210;2023-04-25T01:59:18;13.60;;;6.53;;
17790;SDS011;9019;48.132;-1.210;2023-04-25T02:01:46;15.60;;;5.97;;
17790;SDS011;9019;48.132;-1.210;2023-04-25T02:04:14;17.10;;;6.67;;
17790;SDS011;9019;48.132;-1.210;2023-04-25T02:06:41;15.27;;;6.43;;
17790;SDS011;9019;48.132;-1.210;2023-04-25T02:09:08;13.70;;;5.90;;
17790;SDS011;9019;48.132;-1.210;2023-04-25T02:11:35;15.67;;;6.33;;
17790;SDS011;9019;48.132;-1.210;2023-04-25T02:14:04;15.70;;;6.27;;
17790;SDS011;9019;48.132;-1.210;2023-04-25T02:16:31;14.80;;;6.40;;
17790;SDS011;9019;48.132;-1.210;2023-04-25T02:18:58;11.33;;;6.83;;
17790;SDS011;9019;48.132;-1.210;2023-04-25T02:21:25;18.07;;;6.63;;
17790;SDS011;9019;48.132;-1.210;2023-04-25T02:23:52;18.67;;;7.27;;
17790;SDS011;9019;48.132;-1.210;2023-04-25T02:26:19;18.30;;;6.63;;
17790;SDS011;9019;48.132;-1.210;2023-04-25T02:28:48;12.63;;;6.83;;
17790;SDS011;9019;48.132;-1.210;2023-04-25T02:31:17;12.57;;;6.50;;
17790;SDS011;9019;48.132;-1.210;2023-04-25T02:33:45;16.60;;;6.67;;
17790;SDS011;9019;48.132;-1.210;2023-04-25T02:36:13;17.17;;;6.93;;
17790;SDS011;9019;48.132;-1.210;2023-04-25T02:38:40;16.63;;;6.70;;
17790;SDS011;9019;48.132;-1.210;2023-04-25T02:41:07;12.37;;;7.07;;
17790;SDS011;9019;48.132;-1.210;2023-04-25T02:43:34;16.03;;;7.43;;
17790;SDS011;9019;48.132;-1.210;2023-04-25T02:46:01;16.83;;;7.50;;
17790;SDS011;9019;48.132;-1.210;2023-04-25T02:48:30;14.13;;;7.47;;
17790;SDS011;9019;48.132;-1.210;2023-04-25T02:50:57;19.97;;;7.87;;
17790;SDS011;9019;48.132;-1.210;2023-04-25T02:53:25;20.03;;;7.90;;
17790;SDS011;9019;48.132;-1.210;2023-04-25T02:55:53;16.83;;;7.53;;
17790;SDS011;9019;48.132;-1.210;2023-04-25T02:58:23;17.30;;;7.17;;
17790;SDS011;9019;48.132;-1.210;2023-04-25T03:00:50;12.43;;;6.67;;
17790;SDS011;9019;48.132;-1.210;2023-04-25T03:03:17;17.07;;;7.00;;
17790;SDS011;9019;48.132;-1.210;2023-04-25T03:05:48;17.33;;;6.80;;
17790;SDS011;9019;48.132;-1.210;2023-04-25T03:08:15;19.50;;;7.13;;
17790;SDS011;9019;48.132;-1.210;2023-04-25T03:10:42;13.83;;;7.60;;
17790;SDS011;9019;48.132;-1.210;2023-04-25T03:13:10;17.17;;;7.77;;
17790;SDS011;9019;48.132;-1.210;2023-04-25T03:15:37;15.27;;;8.37;;
17790;SDS011;9019;48.132;-1.210;2023-04-25T03:18:04;15.27;;;7.73;;
17790;SDS011;9019;48.132;-1.210;2023-04-25T03:20:31;15.07;;;7.27;;
17790;SDS011;9019;48.132;-1.210;2023-04-25T03:23:00;16.90;;;7.73;;
17790;SDS011;9019;48.132;-1.210;2023-04-25T03:25:27;17.83;;;7.63;;
17790;SDS011;9019;48.132;-1.210;2023-04-25T03:27:54;12.80;;;6.80;;
17790;SDS011;9019;48.132;-1.210;2023-04-25T03:30:22;16.47;;;7.50;;
17790;SDS011;9019;48.132;-1.210;2023-04-25T03:32:49;14.93;;;7.30;;
17790;SDS011;9019;48.132;-1.210;2023-04-25T03:35:16;19.97;;;7.80;;
17790;SDS011;9019;48.132;-1.210;2023-04-25T03:37:43;17.20;;;7.30;;
17790;SDS011;9019;48.132;-1.210;2023-04-25T03:40:12;15.20;;;6.77;;
17790;SDS011;9019;48.132;-1.210;2023-04-25T03:42:39;14.87;;;6.67;;
17790;SDS011;9019;48.132;-1.210;2023-04-25T03:45:07;19.07;;;6.83;;
17790;SDS011;9019;48.132;-1.210;2023-04-25T03:47:34;17.27;;;6.57;;
17790;SDS011;9019;48.132;-1.210;2023-04-25T03:50:01;13.93;;;6.23;;
17790;SDS011;9019;48.132;-1.210;2023-04-25T03:52:29;16.77;;;6.50;;
17790;SDS011;9019;48.132;-1.210;2023-04-25T03:54:56;15.90;;;6.73;;
17790;SDS011;9019;48.132;-1.210;2023-04-25T03:57:24;21.07;;;6.87;;
17790;SDS011;9019;48.132;-1.210;2023-04-25T03:59:51;15.90;;;6.90;;
17790;SDS011;9019;48.132;-1.210;2023-04-25T04:02:19;13.57;;;6.53;;
17790;SDS011;9019;48.132;-1.210;2023-04-25T04:04:46;13.67;;;6.53;;
17790;SDS011;9019;48.132;-1.210;2023-04-25T04:07:13;16.27;;;6.50;;
17790;SDS011;9019;48.132;-1.210;2023-04-25T04:09:40;12.33;;;6.40;;
17790;SDS011;9019;48.132;-1.210;2023-04-25T04:12:07;15.37;;;6.47;;
17790;SDS011;9019;48.132;-1.210;2023-04-25T04:14:36;17.90;;;6.73;;
17790;SDS011;9019;48.132;-1.210;2023-04-25T04:17:03;13.90;;;6.10;;
17790;SDS011;9019;48.132;-1.210;2023-04-25T04:19:31;14.47;;;6.37;;
17790;SDS011;9019;48.132;-1.210;2023-04-25T04:21:58;11.87;;;6.30;;
17790;SDS011;9019;48.132;-1.210;2023-04-25T04:24:25;14.37;;;6.33;;
17790;SDS011;9019;48.132;-1.210;2023-04-25T04:26:52;16.77;;;6.73;;
17790;SDS011;9019;48.132;-1.210;2023-04-25T04:29:20;12.87;;;6.37;;
17790;SDS011;9019;48.132;-1.210;2023-04-25T04:31:49;14.57;;;7.00;;
17790;SDS011;9019;48.132;-1.210;2023-04-25T04:34:17;12.50;;;7.23;;
17790;SDS011;9019;48.132;-1.210;2023-04-25T04:36:44;20.33;;;7.73;;
17790;SDS011;9019;48.132;-1.210;2023-04-25T04:39:12;13.40;;;7.47;;
17790;SDS011;9019;48.132;-1.210;2023-04-25T04:41:39;15.03;;;7.03;;
17790;SDS011;9019;48.132;-1.210;2023-04-25T04:44:07;16.10;;;7.67;;
17790;SDS011;9019;48.132;-1.210;2023-04-25T04:46:35;16.40;;;7.77;;
17790;SDS011;9019;48.132;-1.210;2023-04-25T04:49:08;17.03;;;7.40;;
17790;SDS011;9019;48.132;-1.210;2023-04-25T04:51:35;13.40;;;7.20;;
17790;SDS011;9019;48.132;-1.210;2023-04-25T04:54:02;21.37;;;7.53;;
17790;SDS011;9019;48.132;-1.210;2023-04-25T04:56:30;19.20;;;7.77;;
17790;SDS011;9019;48.132;-1.210;2023-04-25T04:58:57;16.20;;;8.20;;
17790;SDS011;9019;48.132;-1.210;2023-04-25T05:01:24;18.73;;;7.27;;
17790;SDS011;9019;48.132;-1.210;2023-04-25T05:03:52;13.60;;;7.30;;
17790;SDS011;9019;48.132;-1.210;2023-04-25T05:06:21;14.60;;;7.07;;
17790;SDS011;9019;48.132;-1.210;2023-04-25T05:08:48;18.20;;;7.50;;
17790;SDS011;9019;48.132;-1.210;2023-04-25T05:11:15;17.50;;;7.40;;
17790;SDS011;9019;48.132;-1.210;2023-04-25T05:13:42;16.23;;;7.57;;
17790;SDS011;9019;48.132;-1.210;2023-04-25T05:16:10;16.87;;;8.50;;
17790;SDS011;9019;48.132;-1.210;2023-04-25T05:18:38;13.43;;;7.20;;
17790;SDS011;9019;48.132;-1.210;2023-04-25T05:21:05;14.67;;;6.77;;
17790;SDS011;9019;48.132;-1.210;2023-04-25T05:23:34;17.30;;;7.13;;
17790;SDS011;9019;48.132;-1.210;2023-04-25T05:26:01;14.03;;;7.17;;
17790;SDS011;9019;48.132;-1.210;2023-04-25T05:28:28;14.83;;;7.47;;
17790;SDS011;9019;48.132;-1.210;2023-04-25T05:30:55;13.30;;;6.87;;
17790;SDS011;9019;48.132;-1.210;2023-04-25T05:33:23;13.70;;;6.40;;
17790;SDS011;9019;48.132;-1.210;2023-04-25T05:35:50;15.23;;;7.70;;
17790;SDS011;9019;48.132;-1.210;2023-04-25T05:38:17;17.23;;;7.73;;
17790;SDS011;9019;48.132;-1.210;2023-04-25T05:40:45;12.13;;;6.93;;
17790;SDS011;9019;48.132;-1.210;2023-04-25T05:43:13;16.30;;;7.23;;
17790;SDS011;9019;48.132;-1.210;2023-04-25T05:45:40;13.03;;;7.17;;
17790;SDS011;9019;48.132;-1.210;2023-04-25T05:48:07;10.60;;;7.57;;
17790;SDS011;9019;48.132;-1.210;2023-04-25T05:50:34;13.17;;;7.17;;
17790;SDS011;9019;48.132;-1.210;2023-04-25T05:53:01;14.57;;;8.43;;
17790;SDS011;9019;48.132;-1.210;2023-04-25T05:55:30;18.47;;;8.10;;
17790;SDS011;9019;48.132;-1.210;2023-04-25T05:57:59;14.77;;;7.80;;
17790;SDS011;9019;48.132;-1.210;2023-04-25T06:00:26;11.93;;;7.07;;
17790;SDS011;9019;48.132;-1.210;2023-04-25T06:02:53;13.83;;;6.03;;
17790;SDS011;9019;48.132;-1.210;2023-04-25T06:05:21;9.73;;;5.80;;
17790;SDS011;9019;48.132;-1.210;2023-04-25T06:07:48;11.83;;;6.70;;
17790;SDS011;9019;48.132;-1.210;2023-04-25T06:10:15;11.27;;;6.33;;
17790;SDS011;9019;48.132;-1.210;2023-04-25T06:12:43;11.97;;;6.30;;
17790;SDS011;9019;48.132;-1.210;2023-04-25T06:15:12;13.10;;;6.83;;
17790;SDS011;9019;48.132;-1.210;2023-04-25T06:17:39;14.97;;;6.63;;
17790;SDS011;9019;48.132;-1.210;2023-04-25T06:20:07;13.50;;;6.83;;
17790;SDS011;9019;48.132;-1.210;2023-04-25T06:22:34;13.80;;;7.00;;
17790;SDS011;9019;48.132;-1.210;2023-04-25T06:25:01;15.57;;;7.27;;
17790;SDS011;9019;48.132;-1.210;2023-04-25T06:27:29;12.73;;;7.27;;
17790;SDS011;9019;48.132;-1.210;2023-04-25T06:29:56;16.30;;;7.60;;
17790;SDS011;9019;48.132;-1.210;2023-04-25T06:32:25;16.33;;;7.47;;
17790;SDS011;9019;48.132;-1.210;2023-04-25T06:34:54;14.37;;;7.13;;
17790;SDS011;9019;48.132;-1.210;2023-04-25T06:37:23;15.03;;;7.20;;
17790;SDS011;9019;48.132;-1.210;2023-04-25T06:39:50;13.93;;;6.83;;
17790;SDS011;9019;48.132;-1.210;2023-04-25T06:42:17;14.07;;;6.53;;
17790;SDS011;9019;48.132;-1.210;2023-04-25T06:44:44;11.57;;;7.20;;
17790;SDS011;9019;48.132;-1.210;2023-04-25T06:47:12;14.23;;;6.50;;
17790;SDS011;9019;48.132;-1.210;2023-04-25T06:49:40;10.53;;;6.23;;
17790;SDS011;9019;48.132;-1.210;2023-04-25T06:52:07;10.57;;;6.33;;
17790;SDS011;9019;48.132;-1.210;2023-04-25T06:54:35;10.07;;;5.67;;
17790;SDS011;9019;48.132;-1.210;2023-04-25T06:57:02;9.30;;;5.27;;
17790;SDS011;9019;48.132;-1.210;2023-04-25T06:59:30;6.77;;;5.10;;
17790;SDS011;9019;48.132;-1.210;2023-04-25T07:01:57;8.20;;;6.30;;
17790;SDS011;9019;48.132;-1.210;2023-04-25T07:04:25;9.67;;;6.40;;
17790;SDS011;9019;48.132;-1.210;2023-04-25T07:06:53;9.67;;;5.70;;
17790;SDS011;9019;48.132;-1.210;2023-04-25T07:09:20;8.53;;;5.30;;
17790;SDS011;9019;48.132;-1.210;2023-04-25T07:11:47;7.87;;;5.17;;
17790;SDS011;9019;48.132;-1.210;2023-04-25T07:14:15;9.93;;;5.40;;
17790;SDS011;9019;48.132;-1.210;2023-04-25T07:16:42;6.50;;;5.23;;
17790;SDS011;9019;48.132;-1.210;2023-04-25T07:19:09;8.90;;;5.13;;
17790;SDS011;9019;48.132;-1.210;2023-04-25T07:21:36;8.60;;;5.03;;
17790;SDS011;9019;48.132;-1.210;2023-04-25T07:24:05;9.20;;;5.00;;
17790;SDS011;9019;48.132;-1.210;2023-04-25T07:26:32;9.43;;;5.43;;
17790;SDS011;9019;48.132;-1.210;2023-04-25T07:29:00;8.27;;;5.83;;
17790;SDS011;9019;48.132;-1.210;2023-04-25T07:31:27;7.50;;;5.33;;
17790;SDS011;9019;48.132;-1.210;2023-04-25T07:33:54;8.27;;;5.27;;
17790;SDS011;9019;48.132;-1.210;2023-04-25T07:36:21;9.87;;;5.63;;
17790;SDS011;9019;48.132;-1.210;2023-04-25T07:38:49;11.17;;;5.87;;
17790;SDS011;9019;48.132;-1.210;2023-04-25T07:41:17;7.90;;;5.60;;
17790;SDS011;9019;48.132;-1.210;2023-04-25T07:43:44;8.50;;;5.57;;
17790;SDS011;9019;48.132;-1.210;2023-04-25T07:46:11;7.67;;;5.60;;
17790;SDS011;9019;48.132;-1.210;2023-04-25T07:48:39;8.23;;;5.47;;
17790;SDS011;9019;48.132;-1.210;2023-04-25T07:51:06;6.97;;;5.00;;
17790;SDS011;9019;48.132;-1.210;2023-04-25T07:53:33;6.57;;;4.93;;
17790;SDS011;9019;48.132;-1.210;2023-04-25T07:56:02;8.35;;;5.07;;
17790;SDS011;9019;48.132;-1.210;2023-04-25T07:58:31;6.47;;;4.55;;
17790;SDS011;9019;48.132;-1.210;2023-04-25T08:00:58;9.65;;;5.50;;
17790;SDS011;9019;48.132;-1.210;2023-04-25T08:03:25;7.65;;;4.60;;
17790;SDS011;9019;48.132;-1.210;2023-04-25T08:05:52;10.13;;;5.35;;
17790;SDS011;9019;48.132;-1.210;2023-04-25T08:08:20;9.15;;;5.45;;
17790;SDS011;9019;48.132;-1.210;2023-04-25T08:10:48;6.57;;;5.00;;
17790;SDS011;9019;48.132;-1.210;2023-04-25T08:13:15;7.40;;;5.27;;
17790;SDS011;9019;48.132;-1.210;2023-04-25T08:15:43;7.60;;;5.17;;
17790;SDS011;9019;48.132;-1.210;2023-04-25T08:18:10;7.63;;;5.50;;
17790;SDS011;9019;48.132;-1.210;2023-04-25T08:20:38;10.97;;;5.53;;
17790;SDS011;9019;48.132;-1.210;2023-04-25T08:23:05;9.83;;;5.30;;
17790;SDS011;9019;48.132;-1.210;2023-04-25T08:25:33;6.07;;;5.10;;
17790;SDS011;9019;48.132;-1.210;2023-04-25T08:28:00;7.23;;;4.70;;
17790;SDS011;9019;48.132;-1.210;2023-04-25T08:30:28;6.47;;;4.97;;
17790;SDS011;9019;48.132;-1.210;2023-04-25T08:32:57;8.07;;;4.80;;
17790;SDS011;9019;48.132;-1.210;2023-04-25T08:35:24;7.63;;;4.90;;
17790;SDS011;9019;48.132;-1.210;2023-04-25T08:37:51;7.80;;;4.83;;
17790;SDS011;9019;48.132;-1.210;2023-04-25T08:40:18;7.70;;;5.00;;
17790;SDS011;9019;48.132;-1.210;2023-04-25T08:42:51;6.57;;;4.47;;
17790;SDS011;9019;48.132;-1.210;2023-04-25T08:45:20;8.73;;;4.53;;
17790;SDS011;9019;48.132;-1.210;2023-04-25T08:47:47;7.63;;;4.90;;
17790;SDS011;9019;48.132;-1.210;2023-04-25T08:50:16;7.73;;;5.13;;
17790;SDS011;9019;48.132;-1.210;2023-04-25T08:52:44;7.10;;;4.80;;
17790;SDS011;9019;48.132;-1.210;2023-04-25T08:55:12;6.90;;;4.43;;
17790;SDS011;9019;48.132;-1.210;2023-04-25T08:57:40;5.80;;;4.20;;
17790;SDS011;9019;48.132;-1.210;2023-04-25T09:00:09;7.13;;;4.53;;
17790;SDS011;9019;48.132;-1.210;2023-04-25T09:02:36;7.07;;;4.27;;
17790;SDS011;9019;48.132;-1.210;2023-04-25T09:05:04;5.83;;;4.30;;
17790;SDS011;9019;48.132;-1.210;2023-04-25T09:07:36;5.67;;;3.80;;
17790;SDS011;9019;48.132;-1.210;2023-04-25T09:10:03;8.33;;;4.10;;
17790;SDS011;9019;48.132;-1.210;2023-04-25T09:12:30;7.20;;;4.57;;
17790;SDS011;9019;48.132;-1.210;2023-04-25T09:15:05;6.40;;;4.67;;
17790;SDS011;9019;48.132;-1.210;2023-04-25T09:17:32;6.70;;;4.13;;
17790;SDS011;9019;48.132;-1.210;2023-04-25T09:20:07;5.73;;;4.33;;
17790;SDS011;9019;48.132;-1.210;2023-04-25T09:22:36;5.33;;;3.80;;
17790;SDS011;9019;48.132;-1.210;2023-04-25T09:25:04;6.07;;;3.73;;
17790;SDS011;9019;48.132;-1.210;2023-04-25T09:27:34;5.77;;;4.17;;
17790;SDS011;9019;48.132;-1.210;2023-04-25T09:30:02;5.10;;;4.23;;
17790;SDS011;9019;48.132;-1.210;2023-04-25T09:32:29;7.53;;;4.30;;
17790;SDS011;9019;48.132;-1.210;2023-04-25T09:34:57;5.17;;;4.30;;
17790;SDS011;9019;48.132;-1.210;2023-04-25T09:37:24;7.50;;;4.60;;
17790;SDS011;9019;48.132;-1.210;2023-04-25T09:39:54;8.00;;;4.37;;
17790;SDS011;9019;48.132;-1.210;2023-04-25T09:42:22;6.27;;;3.60;;
17790;SDS011;9019;48.132;-1.210;2023-04-25T09:44:51;6.03;;;3.63;;
17790;SDS011;9019;48.132;-1.210;2023-04-25T09:47:18;6.53;;;3.70;;
17790;SDS011;9019;48.132;-1.210;2023-04-25T09:49:48;7.20;;;3.60;;
17790;SDS011;9019;48.132;-1.210;2023-04-25T09:52:16;6.23;;;3.53;;
17790;SDS011;9019;48.132;-1.210;2023-04-25T09:54:43;3.90;;;3.07;;
17790;SDS011;9019;48.132;-1.210;2023-04-25T09:57:13;6.10;;;3.10;;
17790;SDS011;9019;48.132;-1.210;2023-04-25T09:59:43;6.57;;;2.97;;
17790;SDS011;9019;48.132;-1.210;2023-04-25T10:02:11;6.77;;;3.40;;
17790;SDS011;9019;48.132;-1.210;2023-04-25T10:04:38;3.60;;;3.10;;
17790;SDS011;9019;48.132;-1.210;2023-04-25T10:07:06;3.83;;;2.60;;
17790;SDS011;9019;48.132;-1.210;2023-04-25T10:09:35;5.30;;;3.40;;
17790;SDS011;9019;48.132;-1.210;2023-04-25T10:12:04;4.67;;;2.90;;
17790;SDS011;9019;48.132;-1.210;2023-04-25T10:14:33;4.40;;;2.97;;
17790;SDS011;9019;48.132;-1.210;2023-04-25T10:17:01;4.37;;;2.33;;
17790;SDS011;9019;48.132;-1.210;2023-04-25T10:19:28;3.53;;;2.30;;
17790;SDS011;9019;48.132;-1.210;2023-04-25T10:21:57;3.80;;;2.63;;
17790;SDS011;9019;48.132;-1.210;2023-04-25T10:24:26;5.07;;;2.90;;
17790;SDS011;9019;48.132;-1.210;2023-04-25T10:26:53;4.70;;;2.87;;
17790;SDS011;9019;48.132;-1.210;2023-04-25T10:29:21;4.10;;;2.93;;
17790;SDS011;9019;48.132;-1.210;2023-04-25T10:31:50;4.00;;;2.60;;
17790;SDS011;9019;48.132;-1.210;2023-04-25T10:34:18;4.33;;;3.27;;
17790;SDS011;9019;48.132;-1.210;2023-04-25T10:36:48;8.20;;;3.40;;
17790;SDS011;9019;48.132;-1.210;2023-04-25T10:39:21;4.93;;;2.90;;
17790;SDS011;9019;48.132;-1.210;2023-04-25T10:41:52;4.50;;;3.10;;
17790;SDS011;9019;48.132;-1.210;2023-04-25T10:44:19;4.00;;;2.80;;
17790;SDS011;9019;48.132;-1.210;2023-04-25T10:46:47;4.93;;;3.20;;
17790;SDS011;9019;48.132;-1.210;2023-04-25T10:49:29;4.57;;;2.85;;
17790;SDS011;9019;48.132;-1.210;2023-04-25T10:52:13;3.40;;;2.67;;
17790;SDS011;9019;48.132;-1.210;2023-04-25T10:54:41;4.70;;;2.63;;
17790;SDS011;9019;48.132;-1.210;2023-04-25T10:59:50;4.35;;;2.38;;
17790;SDS011;9019;48.132;-1.210;2023-04-25T11:02:18;5.93;;;2.90;;
17790;SDS011;9019;48.132;-1.210;2023-04-25T11:04:46;4.88;;;2.58;;
17790;SDS011;9019;48.132;-1.210;2023-04-25T11:07:17;4.63;;;3.00;;
17790;SDS011;9019;48.132;-1.210;2023-04-25T11:09:48;4.28;;;2.72;;
17790;SDS011;9019;48.132;-1.210;2023-04-25T11:12:15;3.83;;;2.80;;
17790;SDS011;9019;48.132;-1.210;2023-04-25T11:14:43;4.83;;;2.40;;
17790;SDS011;9019;48.132;-1.210;2023-04-25T11:17:10;3.72;;;2.90;;
17790;SDS011;9019;48.132;-1.210;2023-04-25T11:19:38;3.97;;;2.53;;
17790;SDS011;9019;48.132;-1.210;2023-04-25T11:22:06;4.47;;;3.10;;
17790;SDS011;9019;48.132;-1.210;2023-04-25T11:24:34;3.90;;;3.10;;
17790;SDS011;9019;48.132;-1.210;2023-04-25T11:27:01;4.67;;;3.27;;
17790;SDS011;9019;48.132;-1.210;2023-04-25T11:29:29;4.43;;;3.10;;
17790;SDS011;9019;48.132;-1.210;2023-04-25T11:31:56;5.13;;;3.38;;
17790;SDS011;9019;48.132;-1.210;2023-04-25T11:34:24;6.13;;;3.50;;
17790;SDS011;9019;48.132;-1.210;2023-04-25T11:36:51;6.37;;;3.60;;
17790;SDS011;9019;48.132;-1.210;2023-04-25T11:39:20;5.73;;;3.80;;
17790;SDS011;9019;48.132;-1.210;2023-04-25T11:41:47;4.43;;;3.30;;
17790;SDS011;9019;48.132;-1.210;2023-04-25T11:44:16;4.73;;;3.50;;
17790;SDS011;9019;48.132;-1.210;2023-04-25T11:46:44;4.37;;;3.67;;
17790;SDS011;9019;48.132;-1.210;2023-04-25T11:49:11;4.87;;;3.50;;
17790;SDS011;9019;48.132;-1.210;2023-04-25T11:51:38;3.60;;;3.07;;
17790;SDS011;9019;48.132;-1.210;2023-04-25T11:54:06;5.38;;;3.30;;
17790;SDS011;9019;48.132;-1.210;2023-04-25T11:56:34;5.05;;;3.47;;
17790;SDS011;9019;48.132;-1.210;2023-04-25T11:59:02;4.00;;;3.17;;
17790;SDS011;9019;48.132;-1.210;2023-04-25T12:01:30;5.97;;;3.22;;
17790;SDS011;9019;48.132;-1.210;2023-04-25T12:03:58;7.28;;;3.78;;
17790;SDS011;9019;48.132;-1.210;2023-04-25T12:06:26;3.90;;;3.20;;
17790;SDS011;9019;48.132;-1.210;2023-04-25T12:09:00;5.40;;;3.67;;
17790;SDS011;9019;48.132;-1.210;2023-04-25T12:11:27;5.15;;;3.60;;
17790;SDS011;9019;48.132;-1.210;2023-04-25T12:14:02;4.72;;;3.30;;
17790;SDS011;9019;48.132;-1.210;2023-04-25T12:16:39;5.93;;;3.33;;
17790;SDS011;9019;48.132;-1.210;2023-04-25T12:19:07;4.13;;;3.33;;
17790;SDS011;9019;48.132;-1.210;2023-04-25T12:21:34;4.15;;;3.45;;
17790;SDS011;9019;48.132;-1.210;2023-04-25T12:24:09;4.93;;;3.22;;
17790;SDS011;9019;48.132;-1.210;2023-04-25T12:26:46;6.43;;;3.85;;
17790;SDS011;9019;48.132;-1.210;2023-04-25T12:29:16;6.18;;;3.92;;
17790;SDS011;9019;48.132;-1.210;2023-04-25T12:31:44;4.85;;;3.47;;
17790;SDS011;9019;48.132;-1.210;2023-04-25T12:34:11;4.72;;;3.75;;
17790;SDS011;9019;48.132;-1.210;2023-04-25T12:36:38;4.20;;;3.47;;
17790;SDS011;9019;48.132;-1.210;2023-04-25T12:39:05;6.28;;;3.22;;
17790;SDS011;9019;48.132;-1.210;2023-04-25T12:41:33;4.40;;;3.63;;
17790;SDS011;9019;48.132;-1.210;2023-04-25T12:44:00;3.50;;;3.20;;
17790;SDS011;9019;48.132;-1.210;2023-04-25T12:46:28;5.15;;;3.40;;
17790;SDS011;9019;48.132;-1.210;2023-04-25T12:48:56;4.18;;;3.25;;
17790;SDS011;9019;48.132;-1.210;2023-04-25T12:51:23;4.38;;;3.30;;
17790;SDS011;9019;48.132;-1.210;2023-04-25T12:53:52;5.65;;;3.67;;
17790;SDS011;9019;48.132;-1.210;2023-04-25T12:56:20;3.85;;;3.33;;
17790;SDS011;9019;48.132;-1.210;2023-04-25T12:58:47;5.85;;;4.20;;
17790;SDS011;9019;48.132;-1.210;2023-04-25T13:01:14;6.40;;;3.80;;
17790;SDS011;9019;48.132;-1.210;2023-04-25T13:03:43;6.00;;;3.50;;
17790;SDS011;9019;48.132;-1.210;2023-04-25T13:06:10;5.47;;;3.20;;
17790;SDS011;9019;48.132;-1.210;2023-04-25T13:08:37;5.20;;;3.60;;
17790;SDS011;9019;48.132;-1.210;2023-04-25T13:11:06;4.97;;;3.50;;
17790;SDS011;9019;48.132;-1.210;2023-04-25T13:13:33;5.43;;;3.90;;
17790;SDS011;9019;48.132;-1.210;2023-04-25T13:16:00;3.70;;;3.40;;
17790;SDS011;9019;48.132;-1.210;2023-04-25T13:18:28;4.13;;;3.73;;
17790;SDS011;9019;48.132;-1.210;2023-04-25T13:20:56;3.87;;;3.23;;
17790;SDS011;9019;48.132;-1.210;2023-04-25T13:23:24;4.93;;;3.80;;
17790;SDS011;9019;48.132;-1.210;2023-04-25T13:25:52;5.50;;;3.63;;
17790;SDS011;9019;48.132;-1.210;2023-04-25T13:28:20;6.27;;;3.57;;
17790;SDS011;9019;48.132;-1.210;2023-04-25T13:30:47;4.95;;;3.83;;
17790;SDS011;9019;48.132;-1.210;2023-04-25T13:33:14;5.72;;;3.85;;
17790;SDS011;9019;48.132;-1.210;2023-04-25T13:35:42;5.03;;;4.10;;
17790;SDS011;9019;48.132;-1.210;2023-04-25T13:38:13;4.80;;;4.03;;
17790;SDS011;9019;48.132;-1.210;2023-04-25T13:40:40;3.85;;;3.25;;
17790;SDS011;9019;48.132;-1.210;2023-04-25T13:43:07;4.32;;;3.90;;
17790;SDS011;9019;48.132;-1.210;2023-04-25T13:45:34;4.88;;;4.30;;
17790;SDS011;9019;48.132;-1.210;2023-04-25T13:48:02;7.15;;;4.40;;
17790;SDS011;9019;48.132;-1.210;2023-04-25T13:50:29;4.80;;;3.67;;
17790;SDS011;9019;48.132;-1.210;2023-04-25T13:52:56;5.18;;;3.85;;
17790;SDS011;9019;48.132;-1.210;2023-04-25T13:55:25;5.70;;;4.07;;
17790;SDS011;9019;48.132;-1.210;2023-04-25T13:57:53;6.68;;;4.63;;
17790;SDS011;9019;48.132;-1.210;2023-04-25T14:00:20;4.13;;;3.72;;
17790;SDS011;9019;48.132;-1.210;2023-04-25T14:02:47;5.45;;;3.63;;
17790;SDS011;9019;48.132;-1.210;2023-04-25T14:05:14;5.10;;;3.85;;
17790;SDS011;9019;48.132;-1.210;2023-04-25T14:07:42;5.68;;;3.72;;
17790;SDS011;9019;48.132;-1.210;2023-04-25T14:10:09;5.45;;;4.07;;
17790;SDS011;9019;48.132;-1.210;2023-04-25T14:12:38;4.75;;;3.47;;
17790;SDS011;9019;48.132;-1.210;2023-04-25T14:15:05;3.95;;;3.45;;
17790;SDS011;9019;48.132;-1.210;2023-04-25T14:17:33;5.03;;;4.18;;
17790;SDS011;9019;48.132;-1.210;2023-04-25T14:20:00;5.15;;;4.18;;
17790;SDS011;9019;48.132;-1.210;2023-04-25T14:22:30;4.45;;;3.97;;
17790;SDS011;9019;48.132;-1.210;2023-04-25T14:24:58;6.97;;;3.72;;
17790;SDS011;9019;48.132;-1.210;2023-04-25T14:27:25;5.10;;;3.80;;
17790;SDS011;9019;48.132;-1.210;2023-04-25T14:29:54;6.10;;;3.57;;
17790;SDS011;9019;48.132;-1.210;2023-04-25T14:32:21;5.63;;;3.67;;
17790;SDS011;9019;48.132;-1.210;2023-04-25T14:34:48;4.70;;;3.53;;
17790;SDS011;9019;48.132;-1.210;2023-04-25T14:37:15;6.57;;;3.87;;
17790;SDS011;9019;48.132;-1.210;2023-04-25T14:39:43;5.27;;;3.73;;
17790;SDS011;9019;48.132;-1.210;2023-04-25T14:42:10;5.60;;;3.60;;
17790;SDS011;9019;48.132;-1.210;2023-04-25T14:44:37;4.67;;;3.63;;
17790;SDS011;9019;48.132;-1.210;2023-04-25T14:47:06;5.63;;;3.90;;